sensor_id;sensor_type;location;lat;lon;timestamp;P1;durP1;ratioP1;P2;durP2;ratioP2
12373;SDS011;6251;51.762;8.660;2022-08-07T04:24:25;2.70;;;2.60;;
12373;SDS011;6251;51.762;8.660;2022-08-07T04:34:26;2.65;;;2.55;;
12373;SDS011;6251;51.762;8.660;2022-08-07T04:44:28;2.60;;;2.47;;
12373;SDS011;6251;51.762;8.660;2022-08-07T05:04:48;2.53;;;2.42;;
12373;SDS011;6251;51.762;8.660;2022-08-07T05:14:59;2.60;;;2.50;;
12373;SDS011;6251;51.762;8.660;2022-08-07T05:25:15;2.90;;;2.30;;
12373;SDS011;6251;51.762;8.660;2022-08-07T05:35:19;3.28;;;2.40;;
12373;SDS011;6251;51.762;8.660;2022-08-07T05:45:20;2.60;;;2.50;;
12373;SDS011;6251;51.762;8.660;2022-08-07T05:55:22;2.92;;;2.78;;
12373;SDS011;6251;51.762;8.660;2022-08-07T06:05:23;3.50;;;3.20;;
12373;SDS011;6251;51.762;8.660;2022-08-07T06:15:28;3.47;;;3.17;;
12373;SDS011;6251;51.762;8.660;2022-08-07T06:25:29;3.00;;;2.90;;
12373;SDS011;6251;51.762;8.660;2022-08-07T06:35:30;3.42;;;3.22;;
12373;SDS011;6251;51.762;8.660;2022-08-07T06:45:33;3.50;;;3.30;;
12373;SDS011;6251;51.762;8.660;2022-08-07T06:55:34;3.60;;;3.30;;
12373;SDS011;6251;51.762;8.660;2022-08-07T07:05:35;2.90;;;2.80;;
12373;SDS011;6251;51.762;8.660;2022-08-07T07:15:38;2.60;;;2.50;;
12373;SDS011;6251;51.762;8.660;2022-08-07T07:25:43;2.90;;;2.70;;
12373;SDS011;6251;51.762;8.660;2022-08-07T07:35:48;2.60;;;2.37;;
12373;SDS011;6251;51.762;8.660;2022-08-07T07:45:50;2.15;;;2.05;;
12373;SDS011;6251;51.762;8.660;2022-08-07T07:55:54;2.00;;;1.90;;
12373;SDS011;6251;51.762;8.660;2022-08-07T08:05:57;1.80;;;1.70;;
12373;SDS011;6251;51.762;8.660;2022-08-07T08:15:58;1.90;;;1.80;;
12373;SDS011;6251;51.762;8.660;2022-08-07T08:26:02;1.77;;;1.65;;
12373;SDS011;6251;51.762;8.660;2022-08-07T08:36:25;1.70;;;1.60;;
12373;SDS011;6251;51.762;8.660;2022-08-07T08:56:43;0.90;;;0.90;;
12373;SDS011;6251;51.762;8.660;2022-08-07T09:17:42;0.80;;;0.80;;
12373;SDS011;6251;51.762;8.660;2022-08-07T09:48:16;0.77;;;0.77;;
12373;SDS011;6251;51.762;8.660;2022-08-07T10:39:36;0.65;;;0.65;;
12373;SDS011;6251;51.762;8.660;2022-08-07T11:10:11;1.17;;;0.70;;
12373;SDS011;6251;51.762;8.660;2022-08-07T11:20:36;0.68;;;0.68;;
12373;SDS011;6251;51.762;8.660;2022-08-07T11:40:56;0.70;;;0.70;;
12373;SDS011;6251;51.762;8.660;2022-08-07T12:22:13;0.90;;;0.90;;
12373;SDS011;6251;51.762;8.660;2022-08-07T12:43:05;0.55;;;0.55;;
12373;SDS011;6251;51.762;8.660;2022-08-07T13:03:48;0.70;;;0.70;;
12373;SDS011;6251;51.762;8.660;2022-08-07T13:14:30;0.98;;;0.60;;
12373;SDS011;6251;51.762;8.660;2022-08-07T13:24:55;0.60;;;0.60;;
12373;SDS011;6251;51.762;8.660;2022-08-07T13:45:05;0.95;;;0.80;;
12373;SDS011;6251;51.762;8.660;2022-08-07T13:55:09;0.80;;;0.80;;
12373;SDS011;6251;51.762;8.660;2022-08-07T14:05:12;0.70;;;0.70;;
12373;SDS011;6251;51.762;8.660;2022-08-07T14:15:29;0.90;;;0.90;;
12373;SDS011;6251;51.762;8.660;2022-08-07T14:25:37;0.73;;;0.73;;
12373;SDS011;6251;51.762;8.660;2022-08-07T14:35:40;0.60;;;0.60;;
12373;SDS011;6251;51.762;8.660;2022-08-07T14:45:42;1.10;;;1.00;;
12373;SDS011;6251;51.762;8.660;2022-08-07T14:55:43;0.80;;;0.80;;
12373;SDS011;6251;51.762;8.660;2022-08-07T15:05:46;1.00;;;1.00;;
12373;SDS011;6251;51.762;8.660;2022-08-07T15:15:50;0.90;;;0.90;;
12373;SDS011;6251;51.762;8.660;2022-08-07T15:25:57;0.98;;;0.98;;
12373;SDS011;6251;51.762;8.660;2022-08-07T15:36:00;0.88;;;0.80;;
12373;SDS011;6251;51.762;8.660;2022-08-07T15:46:25;0.68;;;0.68;;
12373;SDS011;6251;51.762;8.660;2022-08-07T15:56:34;0.80;;;0.80;;
12373;SDS011;6251;51.762;8.660;2022-08-07T16:06:38;0.82;;;0.82;;
12373;SDS011;6251;51.762;8.660;2022-08-07T16:27:15;0.98;;;0.90;;
12373;SDS011;6251;51.762;8.660;2022-08-07T16:58:38;0.80;;;0.80;;
12373;SDS011;6251;51.762;8.660;2022-08-07T17:19:18;0.80;;;0.80;;
12373;SDS011;6251;51.762;8.660;2022-08-07T17:40:09;0.95;;;0.95;;
12373;SDS011;6251;51.762;8.660;2022-08-07T17:50:21;0.90;;;0.90;;
12373;SDS011;6251;51.762;8.660;2022-08-07T18:01:01;0.90;;;0.90;;
12373;SDS011;6251;51.762;8.660;2022-08-07T18:11:13;1.02;;;1.02;;
12373;SDS011;6251;51.762;8.660;2022-08-07T18:21:21;1.00;;;1.00;;
12373;SDS011;6251;51.762;8.660;2022-08-07T18:31:35;0.88;;;0.88;;
12373;SDS011;6251;51.762;8.660;2022-08-07T18:41:56;0.90;;;0.90;;
12373;SDS011;6251;51.762;8.660;2022-08-07T19:13:23;1.40;;;1.30;;
12373;SDS011;6251;51.762;8.660;2022-08-07T19:23:38;1.10;;;1.00;;
12373;SDS011;6251;51.762;8.660;2022-08-07T19:33:48;1.60;;;1.20;;
12373;SDS011;6251;51.762;8.660;2022-08-07T19:43:50;1.48;;;1.48;;
12373;SDS011;6251;51.762;8.660;2022-08-07T19:53:54;1.67;;;1.67;;
12373;SDS011;6251;51.762;8.660;2022-08-07T20:03:56;1.70;;;1.65;;
12373;SDS011;6251;51.762;8.660;2022-08-07T20:13:59;2.00;;;1.90;;
12373;SDS011;6251;51.762;8.660;2022-08-07T20:24:02;1.87;;;1.87;;
12373;SDS011;6251;51.762;8.660;2022-08-07T20:34:11;2.10;;;2.00;;
12373;SDS011;6251;51.762;8.660;2022-08-07T20:44:13;1.65;;;1.65;;
12373;SDS011;6251;51.762;8.660;2022-08-07T20:54:15;1.87;;;1.70;;
